Piedmont, KS

4:35 PM CST on November 23, 2014 (GMT -0600)
Strother | Change Station
CLOSE
Current Station
Airport
Location: Winfield,
Elevation: 1158 ft
Nearby Weather Stations
Active Advisory: Wind Advisory Active Notice: Public Information Statement

Elev 1158 ft 37.17 °N, 97.04 °W | Updated 41 minutes ago

Overcast
Overcast
46 °F
Feels Like 37 °F
N
29
Wind Variable Wind from NNW
Gusts 34 mph

Today
High -- | Low -- °F
--% Chance of Precip.
Yesterday
High -- | Low -- °F
Precip. -- in
7:13 AM 5:09 PM
New Moon, 2% visible
Pressure 29.45 in
Visibility 6.0 miles
Clouds Overcast 1800 ft
Windchill 37 °F
Dew Point 43 °F
Humidity 89%
Rainfall 0.03 in
Snow Depth Not available.
UV 0 out of 12
Pollen .10 out of 12
Air Quality Not available.
Flu Activity Not available.
METAR KWLD 232154Z AUTO 34025G30KT 6SM -RA BR OVC018 08/06 A2945 RMK AO2 PK WND 35035/2127 RAB2056E32B48 SLP972 P0003 T00780061

More Conditions Fewer Conditions

Pressure 29.45 in
Visibility 6.0 miles
Clouds Overcast 1800 ft
Windchill 37 °F
Dew Point 43 °F
Humidity 89%
Rainfall 0.03 in
Snow Depth Not available.
UV 0 out of 12
Pollen .10 out of 12
Air Quality Not available.
Flu Activity Not available.
METAR KWLD 232154Z AUTO 34025G30KT 6SM -RA BR OVC018 08/06 A2945 RMK AO2 PK WND 35035/2127 RAB2056E32B48 SLP972 P0003 T00780061

More Conditions Fewer Conditions

10-Day Weather Forecast

Almanac

Astronomy

Nov. 23, 2014 Rise Set
Actual Time
Civil Twilight
Nautical Twilight
Astronomical Twilight
Moon
Length of Visible Light
Length of Day
Tomorrow will be .
, % of the Moon is Illuminated

Today's Extremes

State Highs State Lows

Community

WunderPhotos

Upload Photos

1,773,188 photos uploaded!

WunderBlogs® & News

Nearby

Air Quality

  Air Quality AQ Index Pollutant
Not available.

Snow Depth

Station Depth Elevation

Earthquake Activity

City Distance Mag. Time & Date
Minimum magnitude displayed is 2.5.

Coastal Water Temperatures

Place Temperature

Nearby Weather Stations